sensor_id;sensor_type;location;lat;lon;timestamp;temperature;humidity
38221;DHT22;24023;51.280;7.148;2024-01-11T00:00:21;-2.7;99.9
38221;DHT22;24023;51.280;7.148;2024-01-11T00:05:11;-2.7;99.9
38221;DHT22;24023;51.280;7.148;2024-01-11T00:10:13;-2.7;99.9
38221;DHT22;24023;51.280;7.148;2024-01-11T00:15:13;-3.2;99.9
38221;DHT22;24023;51.280;7.148;2024-01-11T00:20:13;-3.2;99.9
38221;DHT22;24023;51.280;7.148;2024-01-11T00:25:10;-3.5;99.9
38221;DHT22;24023;51.280;7.148;2024-01-11T00:30:15;-3.5;99.9
38221;DHT22;24023;51.280;7.148;2024-01-11T00:35:11;-3.5;99.9
38221;DHT22;24023;51.280;7.148;2024-01-11T00:40:14;-2.9;99.9
38221;DHT22;24023;51.280;7.148;2024-01-11T00:45:15;-2.9;99.9
38221;DHT22;24023;51.280;7.148;2024-01-11T00:50:14;-3.1;99.9
38221;DHT22;24023;51.280;7.148;2024-01-11T00:55:11;-3.1;99.9
38221;DHT22;24023;51.280;7.148;2024-01-11T01:00:21;-3.6;99.9
38221;DHT22;24023;51.280;7.148;2024-01-11T01:05:11;-3.6;99.9
38221;DHT22;24023;51.280;7.148;2024-01-11T01:10:14;-3.6;99.9
38221;DHT22;24023;51.280;7.148;2024-01-11T01:15:12;-3.5;99.9
38221;DHT22;24023;51.280;7.148;2024-01-11T01:20:13;-3.5;99.9
38221;DHT22;24023;51.280;7.148;2024-01-11T01:25:11;-3.7;99.9
38221;DHT22;24023;51.280;7.148;2024-01-11T01:30:15;-3.7;99.9
38221;DHT22;24023;51.280;7.148;2024-01-11T01:35:11;-3.7;99.9
38221;DHT22;24023;51.280;7.148;2024-01-11T01:40:14;-3.7;99.9
38221;DHT22;24023;51.280;7.148;2024-01-11T01:45:16;-3.7;99.9
38221;DHT22;24023;51.280;7.148;2024-01-11T01:50:13;-3.7;99.9
38221;DHT22;24023;51.280;7.148;2024-01-11T01:55:12;-3.7;99.9
38221;DHT22;24023;51.280;7.148;2024-01-11T02:00:21;-2.6;99.9
38221;DHT22;24023;51.280;7.148;2024-01-11T02:05:12;-2.6;99.9
38221;DHT22;24023;51.280;7.148;2024-01-11T02:10:13;-2.6;99.9
38221;DHT22;24023;51.280;7.148;2024-01-11T02:15:12;-2.6;99.9
38221;DHT22;24023;51.280;7.148;2024-01-11T02:20:14;-2.6;99.9
38221;DHT22;24023;51.280;7.148;2024-01-11T02:25:11;-3.2;99.9
38221;DHT22;24023;51.280;7.148;2024-01-11T02:30:16;-3.9;99.9
38221;DHT22;24023;51.280;7.148;2024-01-11T02:35:11;-3.9;99.9
38221;DHT22;24023;51.280;7.148;2024-01-11T02:40:13;-3.9;99.9
38221;DHT22;24023;51.280;7.148;2024-01-11T02:45:16;-3.5;99.9
38221;DHT22;24023;51.280;7.148;2024-01-11T02:50:14;-2.7;99.9
38221;DHT22;24023;51.280;7.148;2024-01-11T02:55:11;-2.7;99.9
38221;DHT22;24023;51.280;7.148;2024-01-11T03:00:20;-2.7;99.9
38221;DHT22;24023;51.280;7.148;2024-01-11T03:05:11;-3.5;99.9
38221;DHT22;24023;51.280;7.148;2024-01-11T03:10:13;-3.8;99.9
38221;DHT22;24023;51.280;7.148;2024-01-11T03:15:13;-3.8;99.9
38221;DHT22;24023;51.280;7.148;2024-01-11T03:20:13;-2.7;99.9
38221;DHT22;24023;51.280;7.148;2024-01-11T03:25:11;-2.7;99.9
38221;DHT22;24023;51.280;7.148;2024-01-11T03:30:15;-3.8;99.9
38221;DHT22;24023;51.280;7.148;2024-01-11T03:35:10;-3.8;99.9
38221;DHT22;24023;51.280;7.148;2024-01-11T03:40:13;-3.8;99.9
38221;DHT22;24023;51.280;7.148;2024-01-11T03:45:18;-3.8;99.9
38221;DHT22;24023;51.280;7.148;2024-01-11T03:50:13;-3.8;99.9
38221;DHT22;24023;51.280;7.148;2024-01-11T03:55:11;-3.5;99.9
38221;DHT22;24023;51.280;7.148;2024-01-11T04:00:21;-3.5;99.9
38221;DHT22;24023;51.280;7.148;2024-01-11T04:05:11;-3.5;99.9
38221;DHT22;24023;51.280;7.148;2024-01-11T04:10:15;-3.5;99.9
38221;DHT22;24023;51.280;7.148;2024-01-11T04:15:12;-3.6;99.9
38221;DHT22;24023;51.280;7.148;2024-01-11T04:20:14;-3.6;99.9
38221;DHT22;24023;51.280;7.148;2024-01-11T04:25:11;-3.3;99.9
38221;DHT22;24023;51.280;7.148;2024-01-11T04:30:15;-3.3;99.9
38221;DHT22;24023;51.280;7.148;2024-01-11T04:35:11;-3.3;99.9
38221;DHT22;24023;51.280;7.148;2024-01-11T04:40:13;-3.2;99.9
38221;DHT22;24023;51.280;7.148;2024-01-11T04:45:16;-3.2;99.9
38221;DHT22;24023;51.280;7.148;2024-01-11T04:50:13;-3.5;99.9
38221;DHT22;24023;51.280;7.148;2024-01-11T04:55:11;-3.5;99.9
38221;DHT22;24023;51.280;7.148;2024-01-11T05:00:20;-3.5;99.9
38221;DHT22;24023;51.280;7.148;2024-01-11T05:05:10;-2.9;99.9
38221;DHT22;24023;51.280;7.148;2024-01-11T05:10:13;-2.9;99.9
38221;DHT22;24023;51.280;7.148;2024-01-11T05:15:12;-2.7;99.9
38221;DHT22;24023;51.280;7.148;2024-01-11T05:20:13;-2.7;99.9
38221;DHT22;24023;51.280;7.148;2024-01-11T05:25:11;-2.7;99.9
38221;DHT22;24023;51.280;7.148;2024-01-11T05:30:15;-3.5;99.9
38221;DHT22;24023;51.280;7.148;2024-01-11T05:35:11;-3.5;99.9
38221;DHT22;24023;51.280;7.148;2024-01-11T05:40:14;-3.5;99.9
38221;DHT22;24023;51.280;7.148;2024-01-11T05:45:15;-3.7;99.9
38221;DHT22;24023;51.280;7.148;2024-01-11T05:50:13;-2.6;99.9
38221;DHT22;24023;51.280;7.148;2024-01-11T05:55:20;-1.5;99.9
38221;DHT22;24023;51.280;7.148;2024-01-11T06:00:20;-1.2;99.9
38221;DHT22;24023;51.280;7.148;2024-01-11T06:05:10;-1.2;99.9
38221;DHT22;24023;51.280;7.148;2024-01-11T06:10:13;-1.1;99.1
38221;DHT22;24023;51.280;7.148;2024-01-11T06:15:12;-1.1;99.1
38221;DHT22;24023;51.280;7.148;2024-01-11T06:20:14;-1.1;99.1
38221;DHT22;24023;51.280;7.148;2024-01-11T06:25:10;-1.5;99.8
38221;DHT22;24023;51.280;7.148;2024-01-11T06:30:15;-1.5;99.8
38221;DHT22;24023;51.280;7.148;2024-01-11T06:35:10;-1.5;99.2
38221;DHT22;24023;51.280;7.148;2024-01-11T06:40:13;-1.5;99.2
38221;DHT22;24023;51.280;7.148;2024-01-11T06:45:16;-2.6;99.9
38221;DHT22;24023;51.280;7.148;2024-01-11T06:50:13;-3.7;99.9
38221;DHT22;24023;51.280;7.148;2024-01-11T06:55:11;-3.7;99.9
38221;DHT22;24023;51.280;7.148;2024-01-11T07:00:21;-3.7;99.9
38221;DHT22;24023;51.280;7.148;2024-01-11T07:05:11;-3.5;99.9
38221;DHT22;24023;51.280;7.148;2024-01-11T07:10:13;-2.4;99.9
38221;DHT22;24023;51.280;7.148;2024-01-11T07:15:12;-2.4;99.9
38221;DHT22;24023;51.280;7.148;2024-01-11T07:20:14;-1.2;99.1
38221;DHT22;24023;51.280;7.148;2024-01-11T07:25:11;-1.2;99.1
38221;DHT22;24023;51.280;7.148;2024-01-11T07:30:15;-1.2;99.1
38221;DHT22;24023;51.280;7.148;2024-01-11T07:35:11;-1.0;98.3
38221;DHT22;24023;51.280;7.148;2024-01-11T07:40:13;-1.0;98.3
38221;DHT22;24023;51.280;7.148;2024-01-11T07:45:15;-0.8;98.3
38221;DHT22;24023;51.280;7.148;2024-01-11T07:50:14;-1.2;98.4
38221;DHT22;24023;51.280;7.148;2024-01-11T07:55:11;-1.2;98.4
38221;DHT22;24023;51.280;7.148;2024-01-11T08:00:21;-1.2;98.4
38221;DHT22;24023;51.280;7.148;2024-01-11T08:05:11;-1.2;98.6
38221;DHT22;24023;51.280;7.148;2024-01-11T08:10:13;-1.2;99.6
38221;DHT22;24023;51.280;7.148;2024-01-11T08:15:13;-1.2;99.6
38221;DHT22;24023;51.280;7.148;2024-01-11T08:20:14;-1.2;99.6
38221;DHT22;24023;51.280;7.148;2024-01-11T08:25:11;-1.5;99.9
38221;DHT22;24023;51.280;7.148;2024-01-11T08:30:15;-1.5;99.9
38221;DHT22;24023;51.280;7.148;2024-01-11T08:35:11;-1.2;99.9
38221;DHT22;24023;51.280;7.148;2024-01-11T08:40:13;-1.7;99.9
38221;DHT22;24023;51.280;7.148;2024-01-11T08:45:19;-1.7;99.9
38221;DHT22;24023;51.280;7.148;2024-01-11T08:50:14;-0.2;99.9
38221;DHT22;24023;51.280;7.148;2024-01-11T08:55:11;-0.2;99.9
38221;DHT22;24023;51.280;7.148;2024-01-11T09:00:20;-0.2;99.9
38221;DHT22;24023;51.280;7.148;2024-01-11T09:05:10;-0.2;99.9
38221;DHT22;24023;51.280;7.148;2024-01-11T09:10:13;0.1;99.9
38221;DHT22;24023;51.280;7.148;2024-01-11T09:15:12;0.1;99.9
38221;DHT22;24023;51.280;7.148;2024-01-11T09:20:15;1.2;96.8
38221;DHT22;24023;51.280;7.148;2024-01-11T09:25:11;1.3;94.7
38221;DHT22;24023;51.280;7.148;2024-01-11T09:30:15;1.7;94.8
38221;DHT22;24023;51.280;7.148;2024-01-11T09:35:11;1.7;94.8
38221;DHT22;24023;51.280;7.148;2024-01-11T09:40:14;1.7;94.8
38221;DHT22;24023;51.280;7.148;2024-01-11T09:45:16;2.0;92.7
38221;DHT22;24023;51.280;7.148;2024-01-11T09:50:15;2.0;92.7
38221;DHT22;24023;51.280;7.148;2024-01-11T09:55:11;2.1;93.6
38221;DHT22;24023;51.280;7.148;2024-01-11T10:00:22;2.4;91.5
38221;DHT22;24023;51.280;7.148;2024-01-11T10:05:11;2.8;86.1
38221;DHT22;24023;51.280;7.148;2024-01-11T10:10:13;2.7;86.4
38221;DHT22;24023;51.280;7.148;2024-01-11T10:15:13;3.0;86.5
38221;DHT22;24023;51.280;7.148;2024-01-11T10:20:14;3.0;86.5
38221;DHT22;24023;51.280;7.148;2024-01-11T10:25:11;3.1;83.5
38221;DHT22;24023;51.280;7.148;2024-01-11T10:30:16;3.1;86.4
38221;DHT22;24023;51.280;7.148;2024-01-11T10:35:11;2.8;84.2
38221;DHT22;24023;51.280;7.148;2024-01-11T10:40:14;2.6;82.1
38221;DHT22;24023;51.280;7.148;2024-01-11T10:45:15;2.7;83.8
38221;DHT22;24023;51.280;7.148;2024-01-11T10:50:14;2.6;87.2
38221;DHT22;24023;51.280;7.148;2024-01-11T10:55:11;2.6;82.0
38221;DHT22;24023;51.280;7.148;2024-01-11T11:00:21;2.9;82.4
38221;DHT22;24023;51.280;7.148;2024-01-11T11:05:13;2.9;82.4
38221;DHT22;24023;51.280;7.148;2024-01-11T11:10:14;2.4;82.3
38221;DHT22;24023;51.280;7.148;2024-01-11T11:15:13;2.4;82.3
38221;DHT22;24023;51.280;7.148;2024-01-11T11:20:15;2.4;82.3
38221;DHT22;24023;51.280;7.148;2024-01-11T11:25:24;3.3;81.0
38221;DHT22;24023;51.280;7.148;2024-01-11T11:30:19;3.3;81.0
38221;DHT22;24023;51.280;7.148;2024-01-11T11:35:13;3.0;78.7
38221;DHT22;24023;51.280;7.148;2024-01-11T11:40:14;3.0;78.7
38221;DHT22;24023;51.280;7.148;2024-01-11T11:45:25;3.3;78.3
38221;DHT22;24023;51.280;7.148;2024-01-11T11:50:14;3.5;76.2
38221;DHT22;24023;51.280;7.148;2024-01-11T11:55:12;3.7;77.8
38221;DHT22;24023;51.280;7.148;2024-01-11T12:00:22;3.8;75.3
38221;DHT22;24023;51.280;7.148;2024-01-11T12:05:10;4.1;73.0
38221;DHT22;24023;51.280;7.148;2024-01-11T12:10:13;3.9;72.2
38221;DHT22;24023;51.280;7.148;2024-01-11T12:15:13;4.0;72.6
38221;DHT22;24023;51.280;7.148;2024-01-11T12:20:14;4.7;70.3
38221;DHT22;24023;51.280;7.148;2024-01-11T12:25:11;4.7;67.9
38221;DHT22;24023;51.280;7.148;2024-01-11T12:30:18;5.1;65.0
38221;DHT22;24023;51.280;7.148;2024-01-11T12:35:11;5.1;62.5
38221;DHT22;24023;51.280;7.148;2024-01-11T12:40:14;5.1;62.5
38221;DHT22;24023;51.280;7.148;2024-01-11T12:45:16;5.1;67.1
38221;DHT22;24023;51.280;7.148;2024-01-11T12:50:14;5.4;68.2
38221;DHT22;24023;51.280;7.148;2024-01-11T12:55:18;5.4;68.2
38221;DHT22;24023;51.280;7.148;2024-01-11T13:00:21;5.4;68.2
38221;DHT22;24023;51.280;7.148;2024-01-11T13:05:10;6.6;64.2
38221;DHT22;24023;51.280;7.148;2024-01-11T13:10:14;6.6;64.2
38221;DHT22;24023;51.280;7.148;2024-01-11T13:15:13;7.7;63.9
38221;DHT22;24023;51.280;7.148;2024-01-11T13:20:14;7.9;62.9
38221;DHT22;24023;51.280;7.148;2024-01-11T13:25:10;7.9;62.9
38221;DHT22;24023;51.280;7.148;2024-01-11T13:30:15;7.9;60.3
38221;DHT22;24023;51.280;7.148;2024-01-11T13:35:12;9.1;60.0
38221;DHT22;24023;51.280;7.148;2024-01-11T13:40:14;9.0;57.3
38221;DHT22;24023;51.280;7.148;2024-01-11T13:45:16;9.0;57.3
38221;DHT22;24023;51.280;7.148;2024-01-11T13:50:14;8.7;55.6
38221;DHT22;24023;51.280;7.148;2024-01-11T13:55:11;8.7;55.6
38221;DHT22;24023;51.280;7.148;2024-01-11T14:00:21;8.9;53.9
38221;DHT22;24023;51.280;7.148;2024-01-11T14:05:13;8.9;53.9
38221;DHT22;24023;51.280;7.148;2024-01-11T14:10:15;8.9;53.9
38221;DHT22;24023;51.280;7.148;2024-01-11T14:15:13;7.4;57.2
38221;DHT22;24023;51.280;7.148;2024-01-11T14:20:14;7.3;55.0
38221;DHT22;24023;51.280;7.148;2024-01-11T14:25:12;6.1;56.3
38221;DHT22;24023;51.280;7.148;2024-01-11T14:30:16;6.0;57.2
38221;DHT22;24023;51.280;7.148;2024-01-11T14:35:11;4.4;61.5
38221;DHT22;24023;51.280;7.148;2024-01-11T14:40:13;4.1;60.4
38221;DHT22;24023;51.280;7.148;2024-01-11T14:45:15;3.4;62.5
38221;DHT22;24023;51.280;7.148;2024-01-11T14:50:14;3.3;64.0
38221;DHT22;24023;51.280;7.148;2024-01-11T14:55:11;3.3;64.0
38221;DHT22;24023;51.280;7.148;2024-01-11T15:00:21;3.3;64.0
38221;DHT22;24023;51.280;7.148;2024-01-11T15:05:10;3.2;65.7
38221;DHT22;24023;51.280;7.148;2024-01-11T15:10:13;3.2;65.7
38221;DHT22;24023;51.280;7.148;2024-01-11T15:15:12;2.8;67.3
38221;DHT22;24023;51.280;7.148;2024-01-11T15:20:14;2.8;67.3
38221;DHT22;24023;51.280;7.148;2024-01-11T15:25:11;2.7;69.4
38221;DHT22;24023;51.280;7.148;2024-01-11T15:30:16;2.7;71.0
38221;DHT22;24023;51.280;7.148;2024-01-11T15:35:10;2.7;71.0
38221;DHT22;24023;51.280;7.148;2024-01-11T15:40:14;2.4;73.5
38221;DHT22;24023;51.280;7.148;2024-01-11T15:45:16;2.4;73.5
38221;DHT22;24023;51.280;7.148;2024-01-11T15:50:13;2.4;73.3
38221;DHT22;24023;51.280;7.148;2024-01-11T15:55:11;2.4;73.3
38221;DHT22;24023;51.280;7.148;2024-01-11T16:00:21;2.5;75.6
38221;DHT22;24023;51.280;7.148;2024-01-11T16:05:11;2.3;78.1
38221;DHT22;24023;51.280;7.148;2024-01-11T16:10:13;1.8;80.2
38221;DHT22;24023;51.280;7.148;2024-01-11T16:15:12;1.8;80.2
38221;DHT22;24023;51.280;7.148;2024-01-11T16:20:14;2.0;82.6
38221;DHT22;24023;51.280;7.148;2024-01-11T16:25:11;1.8;87.1
38221;DHT22;24023;51.280;7.148;2024-01-11T16:30:15;1.3;90.1
38221;DHT22;24023;51.280;7.148;2024-01-11T16:35:10;1.3;90.1
38221;DHT22;24023;51.280;7.148;2024-01-11T16:40:14;1.4;92.2
38221;DHT22;24023;51.280;7.148;2024-01-11T16:45:16;1.4;92.2
38221;DHT22;24023;51.280;7.148;2024-01-11T16:50:16;1.8;96.4
38221;DHT22;24023;51.280;7.148;2024-01-11T16:55:10;1.7;98.9
38221;DHT22;24023;51.280;7.148;2024-01-11T17:00:22;1.9;99.9
38221;DHT22;24023;51.280;7.148;2024-01-11T17:05:13;1.9;99.9
38221;DHT22;24023;51.280;7.148;2024-01-11T17:10:13;1.9;99.9
38221;DHT22;24023;51.280;7.148;2024-01-11T17:15:16;1.5;99.9
38221;DHT22;24023;51.280;7.148;2024-01-11T17:20:13;1.5;99.9
38221;DHT22;24023;51.280;7.148;2024-01-11T17:25:11;2.0;99.9
38221;DHT22;24023;51.280;7.148;2024-01-11T17:30:15;1.9;99.9
38221;DHT22;24023;51.280;7.148;2024-01-11T17:35:11;1.9;99.9
38221;DHT22;24023;51.280;7.148;2024-01-11T17:40:14;1.6;99.9
38221;DHT22;24023;51.280;7.148;2024-01-11T17:45:16;1.6;99.9
38221;DHT22;24023;51.280;7.148;2024-01-11T17:50:13;2.1;99.9
38221;DHT22;24023;51.280;7.148;2024-01-11T17:55:11;2.1;99.9
38221;DHT22;24023;51.280;7.148;2024-01-11T18:00:21;2.1;99.9
38221;DHT22;24023;51.280;7.148;2024-01-11T18:05:10;2.1;99.9
38221;DHT22;24023;51.280;7.148;2024-01-11T18:10:14;1.6;99.9
38221;DHT22;24023;51.280;7.148;2024-01-11T18:15:13;1.6;99.9
38221;DHT22;24023;51.280;7.148;2024-01-11T18:20:14;1.6;99.9
38221;DHT22;24023;51.280;7.148;2024-01-11T18:25:11;1.5;99.9
38221;DHT22;24023;51.280;7.148;2024-01-11T18:30:15;1.5;99.9
38221;DHT22;24023;51.280;7.148;2024-01-11T18:35:11;1.7;99.9
38221;DHT22;24023;51.280;7.148;2024-01-11T18:40:19;1.7;99.9
38221;DHT22;24023;51.280;7.148;2024-01-11T18:45:16;1.6;99.9
38221;DHT22;24023;51.280;7.148;2024-01-11T18:50:14;1.6;99.9
38221;DHT22;24023;51.280;7.148;2024-01-11T18:55:11;1.6;99.9
38221;DHT22;24023;51.280;7.148;2024-01-11T19:00:23;1.8;99.9
38221;DHT22;24023;51.280;7.148;2024-01-11T19:05:11;1.8;99.9
38221;DHT22;24023;51.280;7.148;2024-01-11T19:10:14;1.8;99.9
38221;DHT22;24023;51.280;7.148;2024-01-11T19:15:12;1.8;99.9
38221;DHT22;24023;51.280;7.148;2024-01-11T19:20:14;1.8;99.9
38221;DHT22;24023;51.280;7.148;2024-01-11T19:25:11;1.8;99.9
38221;DHT22;24023;51.280;7.148;2024-01-11T19:30:15;2.0;99.9
38221;DHT22;24023;51.280;7.148;2024-01-11T19:35:11;2.0;99.9
38221;DHT22;24023;51.280;7.148;2024-01-11T19:40:13;2.0;99.9
38221;DHT22;24023;51.280;7.148;2024-01-11T19:45:16;2.2;99.9
38221;DHT22;24023;51.280;7.148;2024-01-11T19:50:13;2.2;99.9
38221;DHT22;24023;51.280;7.148;2024-01-11T19:55:11;1.3;99.9
38221;DHT22;24023;51.280;7.148;2024-01-11T20:00:27;1.3;99.9
38221;DHT22;24023;51.280;7.148;2024-01-11T20:05:11;1.3;99.9
38221;DHT22;24023;51.280;7.148;2024-01-11T20:10:14;1.0;99.9
38221;DHT22;24023;51.280;7.148;2024-01-11T20:15:13;1.0;99.9
38221;DHT22;24023;51.280;7.148;2024-01-11T20:20:14;1.7;99.9
38221;DHT22;24023;51.280;7.148;2024-01-11T20:25:11;1.7;99.9
38221;DHT22;24023;51.280;7.148;2024-01-11T20:30:16;2.1;99.9
38221;DHT22;24023;51.280;7.148;2024-01-11T20:35:11;2.1;99.9
38221;DHT22;24023;51.280;7.148;2024-01-11T20:40:14;2.2;99.9
38221;DHT22;24023;51.280;7.148;2024-01-11T20:45:16;2.2;99.9
38221;DHT22;24023;51.280;7.148;2024-01-11T20:50:14;2.5;99.9
38221;DHT22;24023;51.280;7.148;2024-01-11T20:55:11;2.5;99.9
38221;DHT22;24023;51.280;7.148;2024-01-11T21:00:21;2.5;99.9
38221;DHT22;24023;51.280;7.148;2024-01-11T21:05:11;1.9;99.9
38221;DHT22;24023;51.280;7.148;2024-01-11T21:10:13;1.9;99.9
38221;DHT22;24023;51.280;7.148;2024-01-11T21:15:13;1.7;99.9
38221;DHT22;24023;51.280;7.148;2024-01-11T21:20:14;1.7;99.9
38221;DHT22;24023;51.280;7.148;2024-01-11T21:25:11;1.7;99.9
38221;DHT22;24023;51.280;7.148;2024-01-11T21:30:17;1.9;99.9
38221;DHT22;24023;51.280;7.148;2024-01-11T21:35:11;1.9;99.9
38221;DHT22;24023;51.280;7.148;2024-01-11T21:40:14;1.8;99.9
38221;DHT22;24023;51.280;7.148;2024-01-11T21:45:15;1.8;99.9
38221;DHT22;24023;51.280;7.148;2024-01-11T21:50:14;1.9;99.9
38221;DHT22;24023;51.280;7.148;2024-01-11T21:55:11;1.9;99.9
38221;DHT22;24023;51.280;7.148;2024-01-11T22:00:20;1.6;99.9
38221;DHT22;24023;51.280;7.148;2024-01-11T22:05:10;1.6;99.9
38221;DHT22;24023;51.280;7.148;2024-01-11T22:10:14;1.6;99.9
38221;DHT22;24023;51.280;7.148;2024-01-11T22:15:13;1.8;99.9
38221;DHT22;24023;51.280;7.148;2024-01-11T22:20:13;1.8;99.9
38221;DHT22;24023;51.280;7.148;2024-01-11T22:25:11;1.8;99.9
38221;DHT22;24023;51.280;7.148;2024-01-11T22:30:16;1.8;99.9
38221;DHT22;24023;51.280;7.148;2024-01-11T22:35:11;1.8;99.9
38221;DHT22;24023;51.280;7.148;2024-01-11T22:40:14;2.1;99.9
38221;DHT22;24023;51.280;7.148;2024-01-11T22:45:15;2.1;99.9
38221;DHT22;24023;51.280;7.148;2024-01-11T22:50:17;1.9;99.9
38221;DHT22;24023;51.280;7.148;2024-01-11T22:55:11;1.9;99.9
38221;DHT22;24023;51.280;7.148;2024-01-11T23:00:27;1.9;99.9
38221;DHT22;24023;51.280;7.148;2024-01-11T23:05:14;1.9;99.9
38221;DHT22;24023;51.280;7.148;2024-01-11T23:10:14;1.9;99.9
38221;DHT22;24023;51.280;7.148;2024-01-11T23:15:13;1.6;99.9
38221;DHT22;24023;51.280;7.148;2024-01-11T23:20:14;1.6;99.9
38221;DHT22;24023;51.280;7.148;2024-01-11T23:25:11;2.3;99.9
38221;DHT22;24023;51.280;7.148;2024-01-11T23:30:15;2.3;99.9
38221;DHT22;24023;51.280;7.148;2024-01-11T23:35:11;1.8;99.9
38221;DHT22;24023;51.280;7.148;2024-01-11T23:40:14;1.8;99.9
38221;DHT22;24023;51.280;7.148;2024-01-11T23:45:16;1.8;99.9
38221;DHT22;24023;51.280;7.148;2024-01-11T23:50:13;1.8;99.9
38221;DHT22;24023;51.280;7.148;2024-01-11T23:55:11;1.8;99.9
